createdAt,value
2018-01-10T00:00:28.789Z,121.40
2018-01-10T00:01:28.832Z,121.50
2018-01-10T00:02:28.863Z,124.40
2018-01-10T00:03:28.899Z,125.50
2018-01-10T00:04:28.926Z,127.20
2018-01-10T00:05:28.954Z,125.50
2018-01-10T00:06:28.977Z,126.60
2018-01-10T00:07:29.025Z,119.20
2018-01-10T00:08:29.047Z,119.00
2018-01-10T00:09:29.085Z,115.10
2018-01-10T00:10:29.110Z,116.30
2018-01-10T00:11:29.148Z,116.90
2018-01-10T00:12:29.171Z,115.60
2018-01-10T00:13:29.205Z,118.20
2018-01-10T00:14:29.234Z,118.50
2018-01-10T00:15:29.257Z,125.00
2018-01-10T00:16:29.296Z,120.50
2018-01-10T00:17:29.327Z,120.90
2018-01-10T00:18:29.361Z,119.20
2018-01-10T00:19:29.391Z,122.10
2018-01-10T00:20:29.421Z,118.70
2018-01-10T00:21:29.450Z,117.50
2018-01-10T00:22:29.483Z,117.90
2018-01-10T00:23:29.528Z,116.00
2018-01-10T00:24:29.547Z,119.40
2018-01-10T00:25:29.578Z,119.00
2018-01-10T00:26:29.601Z,118.40
2018-01-10T00:27:29.649Z,119.90
2018-01-10T00:28:29.672Z,119.60
2018-01-10T00:29:29.694Z,114.20
2018-01-10T00:30:29.735Z,122.80
2018-01-10T00:31:29.754Z,119.80
2018-01-10T00:32:29.786Z,119.60
2018-01-10T00:33:29.822Z,119.00
2018-01-10T00:34:29.865Z,119.80
2018-01-10T00:35:29.887Z,129.40
2018-01-10T00:36:29.917Z,128.90
2018-01-10T00:37:29.950Z,129.10
2018-01-10T00:38:29.983Z,127.10
2018-01-10T00:39:30.013Z,127.70
2018-01-10T00:40:30.045Z,127.20
2018-01-10T00:41:30.076Z,128.60
2018-01-10T00:42:30.112Z,139.30
2018-01-10T00:43:30.130Z,134.30
2018-01-10T00:44:30.162Z,128.20
2018-01-10T00:45:30.214Z,132.70
2018-01-10T00:46:30.234Z,126.30
2018-01-10T00:47:30.269Z,128.80
2018-01-10T00:48:30.289Z,128.30
2018-01-10T00:49:30.326Z,128.10
2018-01-10T00:50:30.356Z,129.90
2018-01-10T00:51:30.388Z,126.40
2018-01-10T00:52:30.420Z,132.80
2018-01-10T00:53:30.451Z,128.90
2018-01-10T00:54:30.493Z,129.80
2018-01-10T00:55:30.512Z,127.40
2018-01-10T00:56:30.544Z,131.80
2018-01-10T00:57:30.566Z,133.70
2018-01-10T00:58:30.596Z,130.40
2018-01-10T00:59:30.644Z,126.90
2018-01-10T01:00:30.673Z,130.90
2018-01-10T01:01:30.711Z,130.80
2018-01-10T01:02:30.729Z,129.70
2018-01-10T01:03:30.762Z,128.80
2018-01-10T01:04:30.802Z,128.70
2018-01-10T01:05:30.830Z,124.20
2018-01-10T01:06:30.857Z,131.70
2018-01-10T01:07:30.889Z,128.00
2018-01-10T01:08:30.980Z,127.10
2018-01-10T01:09:31.020Z,136.40
2018-01-10T01:10:31.046Z,134.10
2018-01-10T01:11:31.071Z,133.20
2018-01-10T01:12:31.116Z,134.30
2018-01-10T01:13:31.142Z,138.50
2018-01-10T01:14:31.171Z,136.40
2018-01-10T01:15:31.199Z,140.80
2018-01-10T01:16:31.240Z,143.80
2018-01-10T01:17:31.263Z,148.00
2018-01-10T01:18:31.302Z,144.10
2018-01-10T01:19:31.328Z,151.00
2018-01-10T01:20:31.356Z,144.40
2018-01-10T01:21:31.391Z,144.40
2018-01-10T01:22:31.431Z,145.00
2018-01-10T01:23:31.458Z,149.80
2018-01-10T01:24:31.474Z,147.30
2018-01-10T01:25:31.517Z,153.70
2018-01-10T01:26:31.545Z,150.50
2018-01-10T01:27:31.575Z,146.80
2018-01-10T01:28:31.542Z,143.90
2018-01-10T01:29:31.585Z,146.90
2018-01-10T01:30:31.628Z,143.40
2018-01-10T01:31:31.630Z,142.60
2018-01-10T01:32:31.664Z,145.50
2018-01-10T01:33:31.688Z,141.10
2018-01-10T01:34:31.735Z,147.30
2018-01-10T01:35:31.759Z,147.90
2018-01-10T01:36:31.791Z,144.50
2018-01-10T01:37:31.811Z,144.80
2018-01-10T01:38:31.848Z,142.80
2018-01-10T01:39:31.889Z,142.90
2018-01-10T01:40:31.915Z,145.60
2018-01-10T01:41:31.940Z,145.50
2018-01-10T01:42:31.987Z,144.10
2018-01-10T01:43:32.001Z,143.20
2018-01-10T01:44:32.041Z,145.90
2018-01-10T01:45:32.067Z,140.90
2018-01-10T01:46:32.101Z,139.20
2018-01-10T01:47:32.128Z,145.40
2018-01-10T01:48:32.149Z,144.20
2018-01-10T01:49:32.192Z,143.80
2018-01-10T01:50:32.218Z,143.70
2018-01-10T01:51:32.245Z,145.40
2018-01-10T01:52:32.284Z,146.30
2018-01-10T01:53:32.328Z,147.80
2018-01-10T01:54:32.346Z,144.10
2018-01-10T01:55:32.392Z,141.30
2018-01-10T01:56:32.417Z,149.40
2018-01-10T01:57:32.444Z,149.60
2018-01-10T01:58:32.484Z,154.30
2018-01-10T01:59:32.504Z,148.50
2018-01-10T02:00:32.537Z,145.20
2018-01-10T02:01:32.570Z,145.50
2018-01-10T02:02:32.597Z,145.70
2018-01-10T02:03:32.640Z,147.10
2018-01-10T02:04:32.666Z,148.10
2018-01-10T02:05:32.692Z,152.10
2018-01-10T02:06:32.716Z,144.40
2018-01-10T02:07:32.744Z,151.10
2018-01-10T02:08:32.789Z,154.50
2018-01-10T02:09:33.006Z,156.60
2018-01-10T02:10:32.845Z,157.90
2018-01-10T02:11:32.879Z,164.10
2018-01-10T02:12:32.982Z,158.80
2018-01-10T02:13:33.022Z,160.10
2018-01-10T02:14:33.044Z,159.80
2018-01-10T02:15:33.066Z,162.00
2018-01-10T02:16:33.118Z,161.30
2018-01-10T02:17:33.128Z,161.40
2018-01-10T02:18:33.158Z,159.40
2018-01-10T02:19:33.214Z,163.30
2018-01-10T02:20:33.231Z,159.90
2018-01-10T02:21:33.262Z,163.20
2018-01-10T02:22:33.291Z,165.10
2018-01-10T02:23:33.323Z,172.50
2018-01-10T02:24:33.356Z,168.40
2018-01-10T02:25:33.394Z,172.50
2018-01-10T02:26:33.413Z,171.00
2018-01-10T02:27:33.446Z,167.10
2018-01-10T02:28:33.490Z,169.00
2018-01-10T02:29:33.510Z,165.90
2018-01-10T02:30:33.538Z,164.70
2018-01-10T02:31:33.581Z,171.30
2018-01-10T02:32:33.541Z,174.10
2018-01-10T02:33:33.584Z,177.80
2018-01-10T02:34:33.607Z,221.30
2018-01-10T02:35:33.624Z,233.50
2018-01-10T02:36:33.657Z,231.80
2018-01-10T02:37:33.692Z,232.50
2018-01-10T02:38:33.717Z,224.10
2018-01-10T02:39:33.749Z,225.10
2018-01-10T02:40:33.777Z,218.00
2018-01-10T02:41:33.818Z,223.00
2018-01-10T02:42:33.840Z,218.20
2018-01-10T02:43:34.362Z,215.50
2018-01-10T02:44:33.896Z,214.60
2018-01-10T02:45:33.926Z,217.80
2018-01-10T02:46:33.956Z,215.70
2018-01-10T02:47:34.004Z,215.30
2018-01-10T02:48:34.025Z,219.50
2018-01-10T02:49:34.055Z,216.90
2018-01-10T02:50:34.096Z,215.30
2018-01-10T02:51:34.111Z,221.10
2018-01-10T02:52:34.138Z,220.20
2018-01-10T02:53:34.191Z,227.60
2018-01-10T02:54:34.200Z,218.60
2018-01-10T02:55:34.250Z,229.40
2018-01-10T02:56:34.262Z,230.30
2018-01-10T02:57:34.293Z,238.60
2018-01-10T02:58:34.341Z,245.00
2018-01-10T02:59:34.364Z,252.60
2018-01-10T03:00:34.391Z,248.70
2018-01-10T03:01:34.431Z,258.00
2018-01-10T03:02:34.456Z,263.20
2018-01-10T03:03:34.500Z,260.50
2018-01-10T03:04:34.516Z,258.60
2018-01-10T03:05:34.550Z,257.80
2018-01-10T03:06:34.568Z,247.10
2018-01-10T03:07:34.608Z,249.00
2018-01-10T03:08:34.636Z,248.00
2018-01-10T03:09:34.662Z,262.90
2018-01-10T03:10:34.691Z,252.50
2018-01-10T03:11:34.739Z,250.90
2018-01-10T03:12:34.749Z,257.80
2018-01-10T03:13:34.781Z,265.00
2018-01-10T03:14:34.819Z,266.60
2018-01-10T03:15:34.841Z,261.00
2018-01-10T03:16:34.877Z,264.20
2018-01-10T03:18:34.948Z,255.80
2018-01-10T03:19:34.970Z,255.50
2018-01-10T03:20:34.995Z,255.60
2018-01-10T03:21:35.044Z,264.50
2018-01-10T03:22:35.081Z,262.90
2018-01-10T03:23:35.092Z,257.00
2018-01-10T03:24:35.115Z,263.30
2018-01-10T03:25:35.487Z,273.00
2018-01-10T03:26:35.336Z,273.00
2018-01-10T03:27:35.213Z,265.90
2018-01-10T03:28:35.348Z,263.70
2018-01-10T03:29:35.364Z,269.70
2018-01-10T03:30:35.396Z,257.60
2018-01-10T03:31:35.334Z,245.10
2018-01-10T03:32:35.367Z,251.60
2018-01-10T03:33:35.398Z,251.50
2018-01-10T03:34:35.430Z,252.90
2018-01-10T03:35:35.466Z,245.00
2018-01-10T03:36:35.560Z,229.50
2018-01-10T03:37:35.533Z,219.00
2018-01-10T03:38:35.541Z,221.70
2018-01-10T03:39:37.074Z,229.60
2018-01-10T03:40:35.612Z,231.80
2018-01-10T03:41:35.630Z,223.20
2018-01-10T03:42:35.672Z,213.50
2018-01-10T03:43:35.700Z,214.00
2018-01-10T03:44:35.719Z,216.80
2018-01-10T03:45:35.752Z,213.10
2018-01-10T03:46:35.875Z,214.80
2018-01-10T03:47:35.820Z,214.50
2018-01-10T03:48:35.843Z,201.70
2018-01-10T03:49:35.884Z,200.60
2018-01-10T03:50:35.910Z,203.10
2018-01-10T03:51:35.940Z,198.70
2018-01-10T03:52:35.960Z,199.70
2018-01-10T03:53:35.992Z,197.60
2018-01-10T03:54:36.030Z,195.90
2018-01-10T03:55:36.065Z,189.10
2018-01-10T03:56:36.102Z,182.60
2018-01-10T03:57:36.114Z,187.00
2018-01-10T03:58:36.154Z,174.20
2018-01-10T03:59:36.182Z,159.70
2018-01-10T04:00:36.214Z,158.10
2018-01-10T04:01:36.244Z,167.90
2018-01-10T04:02:36.265Z,178.20
2018-01-10T04:03:36.314Z,181.60
2018-01-10T04:04:36.324Z,170.20
2018-01-10T04:05:36.372Z,174.10
2018-01-10T04:06:36.398Z,180.20
2018-01-10T04:07:36.442Z,182.10
2018-01-10T04:08:36.458Z,178.00
2018-01-10T04:09:36.500Z,177.50
2018-01-10T04:10:36.525Z,170.80
2018-01-10T04:11:36.547Z,157.90
2018-01-10T04:12:36.582Z,139.00
2018-01-10T04:13:36.604Z,149.40
2018-01-10T04:14:36.640Z,153.00
2018-01-10T04:15:36.831Z,159.30
2018-01-10T04:16:36.700Z,183.50
2018-01-10T04:17:36.744Z,171.30
2018-01-10T04:18:36.766Z,192.50
2018-01-10T04:19:36.793Z,201.80
2018-01-10T04:20:36.826Z,195.40
2018-01-10T04:21:36.846Z,198.20
2018-01-10T04:22:36.886Z,195.40
2018-01-10T04:23:36.908Z,205.20
2018-01-10T04:24:36.937Z,196.60
2018-01-10T04:25:36.977Z,199.20
2018-01-10T04:26:37.017Z,210.10
2018-01-10T04:27:37.044Z,199.30
2018-01-10T04:28:37.060Z,199.40
2018-01-10T04:29:37.103Z,198.70
2018-01-10T05:02:55.494Z,146.00
2018-01-10T05:03:56.025Z,159.70
2018-01-10T05:05:55.458Z,160.30
2018-01-10T05:06:55.501Z,154.10
2018-01-10T05:07:56.124Z,147.00
2018-01-10T05:08:55.539Z,155.90
2018-01-10T05:09:55.569Z,149.70
2018-01-10T05:10:55.609Z,146.30
2018-01-10T05:11:55.625Z,149.50
2018-01-10T05:12:55.653Z,147.70
2018-01-10T05:13:55.690Z,146.80
2018-01-10T05:14:55.701Z,144.30
2018-01-10T05:15:55.741Z,143.80
2018-01-10T05:16:55.776Z,142.90
2018-01-10T05:17:55.788Z,142.50
2018-01-10T05:18:55.821Z,139.10
2018-01-10T05:19:55.856Z,138.90
2018-01-10T05:20:56.379Z,137.10
2018-01-10T05:21:55.911Z,134.90
2018-01-10T05:22:55.990Z,129.90
2018-01-10T05:23:55.960Z,129.00
2018-01-10T05:24:56.070Z,129.40
2018-01-10T05:25:56.024Z,130.10
2018-01-10T05:26:56.062Z,131.80
2018-01-10T05:27:56.085Z,127.60
2018-01-10T05:28:56.122Z,125.50
2018-01-10T05:29:56.147Z,126.10
2018-01-10T05:30:56.181Z,127.30
2018-01-10T05:31:56.210Z,126.80
2018-01-10T05:32:56.242Z,125.70
2018-01-10T05:33:56.278Z,123.00
2018-01-10T05:34:56.304Z,124.20
2018-01-10T05:35:56.328Z,124.60
2018-01-10T05:36:56.369Z,124.50
2018-01-10T05:37:56.399Z,125.70
2018-01-10T05:38:56.423Z,125.80
2018-01-10T05:39:56.452Z,125.30
2018-01-10T05:40:56.746Z,121.40
2018-01-10T05:41:56.587Z,122.10
2018-01-10T05:42:56.549Z,117.40
2018-01-10T05:43:56.782Z,119.90
2018-01-10T05:44:56.601Z,119.40
2018-01-10T05:45:56.653Z,117.70
2018-01-10T05:46:56.675Z,117.00
2018-01-10T05:47:56.718Z,116.10
2018-01-10T05:48:56.740Z,119.40
2018-01-10T05:49:56.780Z,117.40
2018-01-10T05:50:56.805Z,119.50
2018-01-10T05:51:56.833Z,119.50
2018-01-10T05:52:56.863Z,118.80
2018-01-10T05:53:56.912Z,118.70
2018-01-10T05:54:56.934Z,116.60
2018-01-10T05:55:56.975Z,117.20
2018-01-10T05:56:56.991Z,115.80
2018-01-10T05:57:57.035Z,115.10
2018-01-10T05:58:57.056Z,117.50
2018-01-10T05:59:57.148Z,115.00
2018-01-10T06:00:57.122Z,117.70
2018-01-10T06:01:57.180Z,114.30
2018-01-10T06:02:57.191Z,112.90
2018-01-10T06:03:57.224Z,113.90
2018-01-10T06:04:57.288Z,113.00
2018-01-10T06:05:57.313Z,114.90
2018-01-10T06:06:57.348Z,111.80
2018-01-10T06:07:57.452Z,111.10
2018-01-10T06:08:57.475Z,104.10
2018-01-10T06:09:57.535Z,106.60
2018-01-10T06:10:57.547Z,102.20
2018-01-10T06:11:57.588Z,101.80
2018-01-10T06:12:57.612Z,101.20
2018-01-10T06:13:57.675Z,103.00
2018-01-10T06:14:57.671Z,101.10
2018-01-10T06:15:57.724Z,107.10
2018-01-10T06:16:57.741Z,107.10
2018-01-10T06:18:57.842Z,106.50
2018-01-10T06:19:57.844Z,108.70
2018-01-10T06:20:57.902Z,106.00
2018-01-10T06:21:57.915Z,110.00
2018-01-10T06:22:57.985Z,109.00
2018-01-10T06:23:58.089Z,108.20
2018-01-10T06:24:58.054Z,108.60
2018-01-10T06:25:58.065Z,108.10
2018-01-10T06:26:58.129Z,109.60
2018-01-10T06:27:58.131Z,110.20
2018-01-10T06:28:58.186Z,109.70
2018-01-10T06:29:58.203Z,112.80
2018-01-10T06:30:58.258Z,108.00
2018-01-10T06:31:59.136Z,109.40
2018-01-10T06:32:58.334Z,108.30
2018-01-10T06:33:58.341Z,109.70
2018-01-10T06:34:58.707Z,110.00
2018-01-10T06:35:58.427Z,99.80
2018-01-10T06:36:58.459Z,108.70
2018-01-10T06:37:58.478Z,105.90
2018-01-10T06:38:58.541Z,102.20
2018-01-10T06:39:58.546Z,102.50
2018-01-10T06:40:58.594Z,99.80
2018-01-10T06:41:58.619Z,100.00
2018-01-10T06:42:58.698Z,93.40
2018-01-10T06:43:58.690Z,93.00
2018-01-10T06:44:58.747Z,93.00
2018-01-10T06:45:58.759Z,89.60
2018-01-10T06:46:58.844Z,86.70
2018-01-10T06:48:58.863Z,88.20
2018-01-10T06:49:58.909Z,88.20
2018-01-10T06:50:58.937Z,88.30
2018-01-10T06:51:59.005Z,87.70
2018-01-10T06:52:59.021Z,87.00
2018-01-10T06:53:59.036Z,88.90
2018-01-10T06:54:59.103Z,88.80
2018-01-10T06:55:59.114Z,91.00
2018-01-10T06:57:59.438Z,97.50
2018-01-10T06:58:59.228Z,94.40
2018-01-10T06:59:59.300Z,98.40
2018-01-10T07:00:59.281Z,100.20
2018-01-10T07:02:59.374Z,100.40
2018-01-10T07:03:59.392Z,103.50
2018-01-10T07:04:59.443Z,98.80
2018-01-10T07:05:59.459Z,104.60
2018-01-10T07:06:59.504Z,102.70
2018-01-10T07:07:59.526Z,101.80
2018-01-10T07:08:59.585Z,108.20
2018-01-10T07:09:59.626Z,105.50
2018-01-10T07:10:59.651Z,107.80
2018-01-10T07:12:00.664Z,108.00
2018-01-10T07:12:59.736Z,109.10
2018-01-10T07:13:59.722Z,106.70
2018-01-10T07:14:59.784Z,107.50
2018-01-10T07:15:59.792Z,107.40
2018-01-10T07:16:59.874Z,108.40
2018-01-10T07:17:59.878Z,107.30
2018-01-10T07:18:59.933Z,111.00
2018-01-10T07:19:59.949Z,108.50
2018-01-10T07:21:00.012Z,108.20
2018-01-10T07:21:59.997Z,106.90
2018-01-10T07:23:00.074Z,103.50
2018-01-10T07:24:00.084Z,106.20
2018-01-10T07:25:00.168Z,104.60
2018-01-10T07:26:00.145Z,103.90
2018-01-10T07:27:00.182Z,105.10
2018-01-10T07:28:00.207Z,104.50
2018-01-10T07:29:00.283Z,104.50
2018-01-10T07:30:00.344Z,102.30
2018-01-10T07:31:00.364Z,103.90
2018-01-10T07:32:00.352Z,104.40
2018-01-10T07:33:00.412Z,108.10
2018-01-10T07:34:00.408Z,106.70
2018-01-10T07:35:00.470Z,103.50
2018-01-10T07:36:00.491Z,103.20
2018-01-10T07:37:00.541Z,104.50
2018-01-10T07:38:00.574Z,100.90
2018-01-10T07:39:00.607Z,103.80
2018-01-10T07:40:00.651Z,101.10
2018-01-10T07:41:00.674Z,99.60
2018-01-10T07:42:00.703Z,96.50
2018-01-10T07:43:00.753Z,98.10
2018-01-10T07:44:00.754Z,97.00
2018-01-10T07:45:00.831Z,92.90
2018-01-10T07:46:00.853Z,91.10
2018-01-10T07:47:00.900Z,92.10
2018-01-10T07:48:00.922Z,92.70
2018-01-10T07:49:00.977Z,90.30
2018-01-10T07:50:00.965Z,89.60
2018-01-10T07:51:01.017Z,85.90
2018-01-10T07:52:01.033Z,90.30
2018-01-10T07:53:01.089Z,86.50
2018-01-10T07:54:01.095Z,81.80
2018-01-10T07:55:01.145Z,80.40
2018-01-10T07:56:01.159Z,72.90
2018-01-10T07:57:01.227Z,94.00
2018-01-10T07:58:01.202Z,84.50
2018-01-10T07:59:01.270Z,80.40
2018-01-10T08:00:01.279Z,77.60
2018-01-10T08:01:01.352Z,80.20
2018-01-10T08:02:01.379Z,79.20
2018-01-10T08:03:01.425Z,73.50
2018-01-10T08:04:01.431Z,77.80
2018-01-10T08:05:01.515Z,70.00
2018-01-10T08:06:01.504Z,74.90
2018-01-10T08:07:01.539Z,71.60
2018-01-10T08:08:01.571Z,64.60
2018-01-10T08:09:01.625Z,65.20
2018-01-10T08:10:01.609Z,61.00
2018-01-10T08:11:01.669Z,61.60
2018-01-10T08:12:01.688Z,62.00
2018-01-10T08:13:01.728Z,61.60
2018-01-10T08:14:01.747Z,63.50
2018-01-10T08:15:01.808Z,59.70
2018-01-10T08:16:01.818Z,56.00
2018-01-10T08:17:01.888Z,54.90
2018-01-10T08:18:01.885Z,56.90
2018-01-10T08:19:01.920Z,56.50
2018-01-10T08:20:01.957Z,54.00
2018-01-10T08:21:02.018Z,58.60
2018-01-10T08:22:02.003Z,56.00
2018-01-10T08:23:02.037Z,54.60
2018-01-10T08:24:02.185Z,58.80
2018-01-10T08:25:02.145Z,61.40
2018-01-10T08:26:02.127Z,57.10
2018-01-10T08:27:02.193Z,51.60
2018-01-10T08:28:02.212Z,48.20
2018-01-10T08:29:02.289Z,49.90
2018-01-10T08:30:02.265Z,47.40
2018-01-10T08:31:02.344Z,46.10
2018-01-10T08:32:02.354Z,45.20
2018-01-10T08:33:02.432Z,43.00
2018-01-10T08:34:02.428Z,42.30
2018-01-10T08:35:02.484Z,41.90
2018-01-10T08:36:02.485Z,41.50
2018-01-10T08:37:02.550Z,41.10
2018-01-10T08:38:02.542Z,42.40
2018-01-10T08:39:02.600Z,41.30
2018-01-10T08:42:02.688Z,41.00
2018-01-10T08:43:02.734Z,41.50
2018-01-10T08:44:02.758Z,41.70
2018-01-10T08:45:02.806Z,41.10
2018-01-10T08:46:02.795Z,40.60
2018-01-10T08:47:02.870Z,40.40
2018-01-10T08:48:02.869Z,40.60
2018-01-10T08:49:02.930Z,39.50
2018-01-10T08:50:02.965Z,40.20
2018-01-10T08:51:03.006Z,40.20
2018-01-10T08:52:03.054Z,39.90
2018-01-10T08:53:03.072Z,39.50
2018-01-10T08:54:03.185Z,39.50
2018-01-10T08:55:03.137Z,40.40
2018-01-10T08:56:03.164Z,39.80
2018-01-10T08:57:03.196Z,38.60
2018-01-10T08:58:03.219Z,40.00
2018-01-10T08:59:03.286Z,39.20
2018-01-10T09:00:03.277Z,38.80
2018-01-10T09:01:03.368Z,39.80
2018-01-10T09:02:03.340Z,39.80
2018-01-10T09:03:03.405Z,42.80
2018-01-10T09:04:03.411Z,43.70
2018-01-10T09:05:03.483Z,45.20
2018-01-10T09:06:03.584Z,44.90
2018-01-10T09:07:03.558Z,45.00
2018-01-10T09:08:03.803Z,44.80
2018-01-10T09:09:03.614Z,46.90
2018-01-10T09:10:03.684Z,47.40
2018-01-10T09:11:03.702Z,47.30
2018-01-10T09:12:03.685Z,51.10
2018-01-10T09:13:03.745Z,49.30
2018-01-10T09:14:03.761Z,49.60
2018-01-10T09:15:03.817Z,49.10
2018-01-10T09:16:03.842Z,50.20
2018-01-10T09:17:03.863Z,49.30
2018-01-10T09:18:03.884Z,49.70
2018-01-10T09:19:03.946Z,51.50
2018-01-10T09:20:05.149Z,49.00
2018-01-10T09:21:04.051Z,49.50
2018-01-10T09:22:04.087Z,52.60
2018-01-10T09:23:04.096Z,52.50
2018-01-10T09:24:04.134Z,54.30
2018-01-10T09:25:04.195Z,52.80
2018-01-10T09:26:04.238Z,51.40
2018-01-10T09:27:04.166Z,52.20
2018-01-10T09:28:04.224Z,51.40
2018-01-10T09:29:04.236Z,50.50
2018-01-10T09:30:04.277Z,50.10
2018-01-10T09:31:04.313Z,53.80
2018-01-10T09:32:04.360Z,54.10
2018-01-10T09:33:04.362Z,53.30
2018-01-10T09:34:04.434Z,54.70
2018-01-10T09:35:04.446Z,51.60
2018-01-10T09:36:04.751Z,51.50
2018-01-10T09:37:04.691Z,52.30
2018-01-10T09:38:04.525Z,50.10
2018-01-10T09:39:04.533Z,49.70
2018-01-10T09:40:04.632Z,50.00
2018-01-10T09:41:04.632Z,50.10
2018-01-10T09:42:04.697Z,49.30
2018-01-10T09:44:04.737Z,48.30
2018-01-10T09:45:04.812Z,49.10
2018-01-10T09:46:04.757Z,49.60
2018-01-10T09:47:04.855Z,49.40
2018-01-10T09:48:04.851Z,49.50
2018-01-10T09:49:04.907Z,49.70
2018-01-10T09:50:04.924Z,48.00
2018-01-10T09:51:04.975Z,48.90
2018-01-10T09:52:05.446Z,48.70
2018-01-10T09:53:05.052Z,48.30
2018-01-10T09:54:05.153Z,47.30
2018-01-10T09:55:05.102Z,49.20
2018-01-10T09:56:05.124Z,48.20
2018-01-10T09:57:05.199Z,47.80
2018-01-10T09:58:05.194Z,45.90
2018-01-10T09:59:05.252Z,46.00
2018-01-10T10:00:05.268Z,49.00
2018-01-10T10:01:05.310Z,48.60
2018-01-10T10:02:05.373Z,47.30
2018-01-10T10:03:05.371Z,51.10
2018-01-10T10:04:05.382Z,50.10
2018-01-10T10:05:05.451Z,51.50
2018-01-10T10:06:05.464Z,51.50
2018-01-10T10:07:05.511Z,49.00
2018-01-10T10:08:05.528Z,48.80
2018-01-10T10:09:05.604Z,48.00
2018-01-10T10:10:05.582Z,44.70
2018-01-10T10:11:05.631Z,45.00
2018-01-10T10:12:05.646Z,43.70
2018-01-10T10:13:05.730Z,46.10
2018-01-10T10:14:05.719Z,46.00
2018-01-10T10:15:05.756Z,45.80
2018-01-10T10:16:05.795Z,48.50
2018-01-10T10:17:05.828Z,48.10
2018-01-10T10:18:05.838Z,50.70
2018-01-10T10:19:05.896Z,52.70
2018-01-10T10:20:05.899Z,54.40
2018-01-10T10:21:05.963Z,53.60
2018-01-10T10:22:05.993Z,62.80
2018-01-10T10:23:06.037Z,60.40
2018-01-10T10:24:06.040Z,57.20
2018-01-10T10:25:06.118Z,53.60
2018-01-10T10:26:06.424Z,53.30
2018-01-10T10:27:06.187Z,53.10
2018-01-10T10:28:06.161Z,56.40
2018-01-10T10:29:06.235Z,59.20
2018-01-10T10:30:06.222Z,59.60
2018-01-10T10:31:06.294Z,55.50
2018-01-10T10:32:06.286Z,53.50
2018-01-10T10:33:06.375Z,52.50
2018-01-10T10:34:06.348Z,49.20
2018-01-10T10:35:06.433Z,50.80
2018-01-10T10:36:06.432Z,47.40
2018-01-10T10:37:06.490Z,49.90
2018-01-10T10:38:06.496Z,47.30
2018-01-10T10:39:06.534Z,46.80
2018-01-10T10:40:06.571Z,45.90
2018-01-10T10:41:06.606Z,46.10
2018-01-10T10:42:06.626Z,44.20
2018-01-10T10:43:06.676Z,43.40
2018-01-10T10:44:06.681Z,43.80
2018-01-10T10:45:06.743Z,43.20
2018-01-10T10:46:06.762Z,43.00
2018-01-10T10:47:06.810Z,42.90
2018-01-10T10:48:06.811Z,42.80
2018-01-10T10:49:06.893Z,42.60
2018-01-10T10:50:06.900Z,41.40
2018-01-10T10:51:06.920Z,43.40
2018-01-10T10:52:06.962Z,41.70
2018-01-10T10:53:07.004Z,41.10
2018-01-10T10:54:07.127Z,42.40
2018-01-10T10:55:07.069Z,41.40
2018-01-10T10:56:07.094Z,43.30
2018-01-10T10:57:07.147Z,43.10
2018-01-10T10:58:07.149Z,42.20
2018-01-10T10:59:07.200Z,42.60
2018-01-10T11:00:07.227Z,43.10
2018-01-10T11:01:07.276Z,42.50
2018-01-10T11:02:07.270Z,43.50
2018-01-10T11:03:07.345Z,43.90
2018-01-10T11:04:07.350Z,44.70
2018-01-10T11:05:07.401Z,41.70
2018-01-10T11:06:07.424Z,42.70
2018-01-10T11:07:07.479Z,41.10
2018-01-10T11:08:07.472Z,40.50
2018-01-10T11:09:07.529Z,42.80
2018-01-10T11:10:07.549Z,41.80
2018-01-10T11:11:07.702Z,43.00
2018-01-10T11:12:07.717Z,41.10
2018-01-10T11:13:07.744Z,42.90
2018-01-10T11:14:07.696Z,42.40
2018-01-10T11:15:07.722Z,42.50
2018-01-10T11:16:07.777Z,44.00
2018-01-10T11:17:07.768Z,43.10
2018-01-10T11:19:08.177Z,43.00
2018-01-10T11:20:07.978Z,43.20
2018-01-10T11:21:09.228Z,43.50
2018-01-10T11:22:08.041Z,41.20
2018-01-10T11:23:08.090Z,43.40
2018-01-10T11:24:08.106Z,42.10
2018-01-10T11:25:08.166Z,43.10
2018-01-10T11:26:08.382Z,42.00
2018-01-10T11:27:08.236Z,44.40
2018-01-10T11:28:08.454Z,43.20
2018-01-10T11:29:08.316Z,44.50
2018-01-10T11:30:08.313Z,43.00
2018-01-10T11:31:08.378Z,45.50
2018-01-10T11:32:08.972Z,46.00
2018-01-10T11:33:08.433Z,43.50
2018-01-10T11:34:08.433Z,44.40
2018-01-10T11:35:08.694Z,44.70
2018-01-10T11:36:08.502Z,44.10
2018-01-10T11:37:08.569Z,47.00
2018-01-10T11:38:08.873Z,44.30
2018-01-10T11:39:08.626Z,47.10
2018-01-10T11:40:08.639Z,45.50
2018-01-10T11:41:08.701Z,47.20
2018-01-10T11:42:08.707Z,52.00
2018-01-10T11:43:08.661Z,53.50
2018-01-10T11:44:08.665Z,55.80
2018-01-10T11:45:08.749Z,58.60
2018-01-10T11:46:08.735Z,58.60
2018-01-10T11:47:08.789Z,59.80
2018-01-10T11:48:08.792Z,58.20
2018-01-10T11:49:08.854Z,58.80
2018-01-10T11:50:09.069Z,60.00
2018-01-10T11:51:08.937Z,59.50
2018-01-10T11:52:08.923Z,60.40
2018-01-10T11:53:08.991Z,59.00
2018-01-10T11:54:09.097Z,59.80
2018-01-10T11:55:09.040Z,60.70
2018-01-10T11:56:09.068Z,59.70
2018-01-10T11:57:09.119Z,60.40
2018-01-10T11:58:09.125Z,58.60
2018-01-10T11:59:09.172Z,61.50
2018-01-10T12:00:09.185Z,62.80
2018-01-10T12:01:09.244Z,59.90
2018-01-10T12:02:09.258Z,62.60
2018-01-10T12:03:09.305Z,64.50
2018-01-10T12:04:09.330Z,61.90
2018-01-10T12:05:09.398Z,60.50
2018-01-10T12:06:09.398Z,59.90
2018-01-10T12:07:09.436Z,62.00
2018-01-10T12:08:09.745Z,59.70
2018-01-10T12:09:09.528Z,60.50
2018-01-10T12:10:09.513Z,62.20
2018-01-10T12:11:09.578Z,63.90
2018-01-10T12:12:09.578Z,66.00
2018-01-10T12:13:09.650Z,64.00
2018-01-10T12:14:09.644Z,63.40
2018-01-10T12:15:09.715Z,64.80
2018-01-10T12:16:09.734Z,63.20
2018-01-10T12:17:09.779Z,62.00
2018-01-10T12:18:09.985Z,61.90
2018-01-10T12:19:09.834Z,62.30
2018-01-10T12:20:09.846Z,60.40
2018-01-10T12:21:09.909Z,60.40
2018-01-10T12:22:09.917Z,61.40
2018-01-10T12:23:09.947Z,62.50
2018-01-10T12:24:10.067Z,60.70
2018-01-10T12:25:10.067Z,61.40
2018-01-10T12:26:10.032Z,62.70
2018-01-10T12:27:10.083Z,63.80
2018-01-10T12:28:10.094Z,63.20
2018-01-10T12:29:10.173Z,65.60
2018-01-10T12:30:10.163Z,65.00
2018-01-10T12:31:10.237Z,66.90
2018-01-10T12:32:10.533Z,69.10
2018-01-10T12:33:10.305Z,66.70
2018-01-10T12:34:10.294Z,70.90
2018-01-10T12:35:10.358Z,70.00
2018-01-10T12:36:10.369Z,67.00
2018-01-10T12:37:10.432Z,70.70
2018-01-10T12:38:10.428Z,74.30
2018-01-10T12:39:10.477Z,73.40
2018-01-10T12:40:10.491Z,72.00
2018-01-10T12:41:10.555Z,73.70
2018-01-10T12:42:10.563Z,74.10
2018-01-10T12:43:10.615Z,72.00
2018-01-10T12:44:10.617Z,74.20
2018-01-10T12:45:10.688Z,84.20
2018-01-10T12:46:10.682Z,76.10
2018-01-10T12:47:10.748Z,77.60
2018-01-10T12:48:10.751Z,78.10
2018-01-10T12:49:10.821Z,80.00
2018-01-10T12:50:10.816Z,80.30
2018-01-10T12:51:10.877Z,80.70
2018-01-10T12:52:10.889Z,85.60
2018-01-10T12:53:11.257Z,81.20
2018-01-10T12:54:10.944Z,78.70
2018-01-10T12:55:10.997Z,79.20
2018-01-10T12:56:11.016Z,77.90
2018-01-10T12:57:11.086Z,82.00
2018-01-10T12:58:11.084Z,83.30
2018-01-10T12:59:11.135Z,84.20
2018-01-10T13:00:11.449Z,83.00
2018-01-10T13:01:11.205Z,83.20
2018-01-10T13:02:11.210Z,84.40
2018-01-10T13:03:11.267Z,86.80
2018-01-10T13:04:11.266Z,82.20
2018-01-10T13:05:11.371Z,81.40
2018-01-10T13:06:11.337Z,86.90
2018-01-10T13:07:11.400Z,93.00
2018-01-10T13:08:11.416Z,97.40
2018-01-10T13:09:11.822Z,100.60
2018-01-10T13:10:11.479Z,95.50
2018-01-10T13:11:11.522Z,92.40
2018-01-10T13:12:11.543Z,90.90
2018-01-10T13:13:11.612Z,93.80
2018-01-10T13:14:11.614Z,94.70
2018-01-10T13:15:11.666Z,95.90
2018-01-10T13:16:11.673Z,93.40
2018-01-10T13:17:11.732Z,91.40
2018-01-10T13:18:11.723Z,93.10
2018-01-10T13:19:11.773Z,93.40
2018-01-10T13:20:11.785Z,93.50
2018-01-10T13:21:12.173Z,93.60
2018-01-10T13:22:11.866Z,93.70